Time;durP1;ratioP1;P1;durP2;ratioP2;P2;SDS_P1;SDS_P2;PMS_P1;PMS_P2;Temp;Humidity;BMP_temperature;BMP_pressure;BME280_temperature;BME280_humidity;BME280_pressure;Samples;Min_cycle;Max_cycle;Signal;HPM_P1;HPM_P2
2023/01/07 00:01:45;;;;;;;7.43;6.00;;;5.10;99.90;;;;;;5039767;28;20215;-51
2023/01/07 00:04:14;;;;;;;6.17;5.57;;;5.10;99.90;;;;;;5047652;28;20214;-51
2023/01/07 00:06:43;;;;;;;6.90;5.67;;;5.10;99.90;;;;;;5051803;28;20211;-50
2023/01/07 00:09:13;;;;;;;6.57;5.97;;;4.90;99.90;;;;;;5053981;28;20262;-51
2023/01/07 00:11:41;;;;;;;6.43;5.70;;;4.80;99.90;;;;;;5034366;28;20237;-50
2023/01/07 00:14:11;;;;;;;6.53;5.63;;;4.70;99.90;;;;;;5043327;28;20595;-51
2023/01/07 00:16:39;;;;;;;6.30;5.67;;;4.70;99.90;;;;;;5046665;28;20712;-52
2023/01/07 00:19:07;;;;;;;5.80;5.30;;;4.60;99.90;;;;;;5045854;28;20577;-52
2023/01/07 00:21:35;;;;;;;7.37;5.87;;;4.50;99.90;;;;;;5055457;28;20289;-51
2023/01/07 00:24:04;;;;;;;6.07;5.47;;;4.40;99.90;;;;;;5048865;28;20220;-53
2023/01/07 00:26:34;;;;;;;5.70;5.10;;;4.30;99.90;;;;;;5054696;28;20628;-52
2023/01/07 00:29:01;;;;;;;6.03;5.43;;;4.20;99.90;;;;;;5051487;28;20199;-52
2023/01/07 00:31:31;;;;;;;6.67;6.03;;;4.20;99.90;;;;;;5039514;28;20797;-51
2023/01/07 00:34:08;;;;;;;6.53;5.93;;;4.10;99.90;;;;;;5046074;28;20216;-51
2023/01/07 00:36:40;;;;;;;7.97;6.20;;;4.10;99.90;;;;;;5048897;28;20213;-52
2023/01/07 00:39:11;;;;;;;5.77;5.10;;;4.00;99.90;;;;;;5060943;28;20255;-50
2023/01/07 00:41:38;;;;;;;6.53;5.93;;;4.10;99.90;;;;;;5057580;28;20705;-52
2023/01/07 00:44:07;;;;;;;5.83;5.37;;;4.10;99.90;;;;;;5036051;28;20210;-51
2023/01/07 00:46:35;;;;;;;8.10;5.60;;;4.00;99.90;;;;;;5048619;28;20211;-52
2023/01/07 00:49:02;;;;;;;6.80;6.13;;;4.00;99.90;;;;;;5054399;28;20207;-52
2023/01/07 00:51:29;;;;;;;7.13;5.57;;;4.00;99.90;;;;;;5054115;28;20592;-52
2023/01/07 00:53:56;;;;;;;7.73;6.07;;;4.00;99.90;;;;;;5056409;28;20203;-51
2023/01/07 00:56:23;;;;;;;6.67;6.07;;;3.90;99.90;;;;;;5047143;28;20207;-52
2023/01/07 00:58:50;;;;;;;6.17;5.67;;;3.90;99.90;;;;;;5051500;28;20299;-51
2023/01/07 01:01:17;;;;;;;6.80;6.10;;;3.80;99.90;;;;;;5030983;28;20331;-52
2023/01/07 01:03:45;;;;;;;5.83;5.30;;;3.80;99.90;;;;;;5030798;28;20277;-51
2023/01/07 01:06:15;;;;;;;6.20;5.63;;;3.70;99.90;;;;;;5031014;28;20206;-51
2023/01/07 01:08:43;;;;;;;7.57;5.63;;;3.70;99.90;;;;;;5053339;28;20201;-52
2023/01/07 01:11:11;;;;;;;6.47;5.87;;;3.80;99.90;;;;;;5049289;28;20320;-51
2023/01/07 01:13:39;;;;;;;6.27;5.33;;;3.80;99.90;;;;;;5055588;28;20274;-52
2023/01/07 01:16:09;;;;;;;7.43;5.67;;;3.80;99.90;;;;;;5057521;28;20202;-50
2023/01/07 01:18:36;;;;;;;6.23;5.73;;;3.80;99.90;;;;;;5037387;28;20589;-51
2023/01/07 01:21:06;;;;;;;7.63;5.60;;;3.70;99.90;;;;;;5052708;28;20235;-51
2023/01/07 01:23:33;;;;;;;6.53;5.47;;;3.70;99.90;;;;;;5058896;28;20203;-52
2023/01/07 01:26:05;;;;;;;6.47;5.90;;;3.70;99.90;;;;;;5058775;28;20279;-51
2023/01/07 01:28:32;;;;;;;7.30;6.20;;;3.70;99.90;;;;;;5062373;28;20233;-51
2023/01/07 01:30:59;;;;;;;6.27;5.67;;;3.70;99.90;;;;;;5049298;28;20233;-52
2023/01/07 01:33:26;;;;;;;8.27;7.03;;;3.70;99.90;;;;;;5045147;28;20238;-52
2023/01/07 01:35:53;;;;;;;6.97;6.30;;;3.70;99.90;;;;;;5057636;28;20192;-52
2023/01/07 01:38:21;;;;;;;7.23;6.53;;;3.60;99.90;;;;;;5053848;28;20210;-51
2023/01/07 01:40:48;;;;;;;5.80;5.30;;;3.60;99.90;;;;;;5045282;28;20274;-52
2023/01/07 01:43:29;;;;;;;7.00;5.77;;;3.60;99.90;;;;;;5062139;28;20191;-53
2023/01/07 01:45:57;;;;;;;6.20;5.60;;;3.60;99.90;;;;;;5040580;28;20199;-51
2023/01/07 01:48:25;;;;;;;6.80;6.10;;;3.50;99.90;;;;;;5057497;28;20203;-51
2023/01/07 01:50:53;;;;;;;5.77;5.33;;;3.50;99.90;;;;;;5057307;28;20226;-51
2023/01/07 01:53:25;;;;;;;6.93;6.13;;;3.50;99.90;;;;;;5054536;28;20259;-51
2023/01/07 01:55:57;;;;;;;7.03;6.33;;;3.40;99.90;;;;;;5061077;28;20631;-52
2023/01/07 01:58:30;;;;;;;7.13;6.53;;;3.40;99.90;;;;;;5046714;28;20585;-51
2023/01/07 02:00:57;;;;;;;7.50;5.90;;;3.40;99.90;;;;;;5053440;28;20243;-51
2023/01/07 02:03:25;;;;;;;8.80;7.37;;;3.30;99.90;;;;;;5070224;28;20209;-52
2023/01/07 02:05:53;;;;;;;8.43;7.60;;;3.20;99.90;;;;;;5060550;28;20199;-51
2023/01/07 02:08:22;;;;;;;10.63;7.53;;;3.20;99.90;;;;;;5057308;28;20659;-52
2023/01/07 02:10:54;;;;;;;8.33;6.77;;;3.10;99.90;;;;;;5045114;28;20250;-51
2023/01/07 02:13:36;;;;;;;7.00;6.37;;;3.10;99.90;;;;;;5046619;28;20224;-51
2023/01/07 02:16:13;;;;;;;11.70;6.93;;;3.00;99.90;;;;;;5057163;28;20204;-50
2023/01/07 02:18:51;;;;;;;7.80;7.00;;;2.90;99.90;;;;;;5050144;28;20657;-51
2023/01/07 02:21:30;;;;;;;7.50;6.70;;;2.90;99.90;;;;;;5050683;28;20240;-52
2023/01/07 02:24:31;;;;;;;7.07;6.37;;;2.90;99.90;;;;;;5040690;28;20187;-50
2023/01/07 02:27:14;;;;;;;7.10;6.50;;;2.90;99.90;;;;;;5053551;28;20584;-51
2023/01/07 02:30:17;;;;;;;7.30;6.40;;;2.80;99.90;;;;;;5064438;28;20198;-51
2023/01/07 02:33:14;;;;;;;7.03;6.33;;;2.80;99.90;;;;;;5057964;28;20276;-51
2023/01/07 02:36:04;;;;;;;6.63;6.10;;;2.80;99.90;;;;;;5048781;28;20204;-51
2023/01/07 02:38:38;;;;;;;8.10;6.67;;;2.70;99.90;;;;;;5045157;28;20242;-51
2023/01/07 02:41:16;;;;;;;8.70;6.80;;;2.80;99.90;;;;;;5030557;28;20612;-51
2023/01/07 02:43:53;;;;;;;7.27;6.33;;;2.70;99.90;;;;;;5049294;28;20734;-51
2023/01/07 02:46:28;;;;;;;7.13;6.43;;;2.70;99.90;;;;;;5038251;28;20709;-51
2023/01/07 02:48:59;;;;;;;7.83;6.33;;;2.70;99.90;;;;;;5053457;28;20220;-52
2023/01/07 02:51:33;;;;;;;7.40;6.73;;;2.60;99.90;;;;;;5042816;28;20217;-51
2023/01/07 02:54:01;;;;;;;7.67;6.43;;;2.60;99.90;;;;;;5053690;28;20223;-51
2023/01/07 02:56:38;;;;;;;7.37;6.63;;;2.50;99.90;;;;;;5052362;28;20194;-51
2023/01/07 02:59:28;;;;;;;8.83;7.07;;;2.60;99.90;;;;;;5043277;28;20642;-51
2023/01/07 03:02:37;;;;;;;8.13;7.33;;;2.60;99.90;;;;;;5056689;28;20226;-50
2023/01/07 03:05:36;;;;;;;6.53;5.93;;;2.60;99.90;;;;;;5053073;28;20619;-50
2023/01/07 03:08:15;;;;;;;8.50;6.13;;;2.60;99.90;;;;;;5038142;28;20566;-51
2023/01/07 03:10:47;;;;;;;14.87;6.30;;;2.50;99.90;;;;;;5035521;28;20224;-50
2023/01/07 03:13:18;;;;;;;7.07;6.40;;;2.50;99.90;;;;;;5061302;28;20223;-50
2023/01/07 03:15:48;;;;;;;10.30;6.50;;;2.50;99.90;;;;;;5045480;28;20239;-50
2023/01/07 03:18:19;;;;;;;6.70;6.10;;;2.50;99.90;;;;;;5033364;28;20626;-51
2023/01/07 03:20:51;;;;;;;7.57;6.83;;;2.50;99.90;;;;;;5048724;28;20315;-49
2023/01/07 03:23:22;;;;;;;6.47;5.43;;;2.50;99.90;;;;;;5058346;28;20207;-51
2023/01/07 03:25:52;;;;;;;7.03;6.33;;;2.40;99.90;;;;;;5045746;28;20256;-50
2023/01/07 03:28:24;;;;;;;6.87;6.37;;;2.40;99.90;;;;;;5042166;28;20212;-50
2023/01/07 03:30:54;;;;;;;9.93;7.63;;;2.40;99.90;;;;;;5082189;22;20291;-51
2023/01/07 03:33:25;;;;;;;6.53;5.20;;;2.50;99.90;;;;;;5092951;28;20218;-54
2023/01/07 03:35:58;;;;;;;6.83;6.17;;;2.40;99.90;;;;;;5094102;28;20199;-52
2023/01/07 03:38:27;;;;;;;7.27;6.50;;;2.40;99.90;;;;;;5094192;28;20194;-52
2023/01/07 03:40:55;;;;;;;7.17;6.50;;;2.40;99.90;;;;;;5094036;28;20230;-51
2023/01/07 03:43:22;;;;;;;6.50;5.80;;;2.40;99.90;;;;;;5056671;28;20750;-52
2023/01/07 03:45:51;;;;;;;6.87;6.17;;;2.40;99.90;;;;;;5074057;28;20209;-52
2023/01/07 03:48:19;;;;;;;5.80;5.30;;;2.40;99.90;;;;;;5073978;28;20198;-52
2023/01/07 03:50:46;;;;;;;5.30;4.80;;;2.40;99.90;;;;;;5066957;28;20227;-52
2023/01/07 03:53:14;;;;;;;6.53;4.90;;;2.40;99.90;;;;;;5072849;28;20562;-53
2023/01/07 03:55:45;;;;;;;5.47;4.30;;;2.40;99.90;;;;;;5073492;28;20206;-52
2023/01/07 03:58:12;;;;;;;5.33;4.83;;;2.50;99.90;;;;;;5072266;28;20206;-54
2023/01/07 04:00:39;;;;;;;6.93;5.53;;;2.40;99.90;;;;;;5057137;28;20286;-52
2023/01/07 04:03:06;;;;;;;5.63;4.47;;;2.40;99.90;;;;;;5073476;28;20203;-52
2023/01/07 04:05:33;;;;;;;5.27;4.77;;;2.30;99.90;;;;;;5073587;28;20206;-52
2023/01/07 04:08:00;;;;;;;5.27;4.77;;;2.40;99.90;;;;;;5064481;28;20207;-50
2023/01/07 04:10:28;;;;;;;6.03;5.53;;;2.40;99.90;;;;;;5068878;28;20709;-52
2023/01/07 04:12:55;;;;;;;5.80;5.30;;;2.40;99.90;;;;;;5072657;28;20263;-52
2023/01/07 04:15:22;;;;;;;5.07;4.57;;;2.40;99.90;;;;;;5071802;28;20204;-53
2023/01/07 04:17:49;;;;;;;8.50;5.80;;;2.40;99.90;;;;;;5073178;28;20251;-53
2023/01/07 04:20:16;;;;;;;4.70;4.30;;;2.30;99.90;;;;;;5069542;28;20248;-52
2023/01/07 04:22:43;;;;;;;5.93;4.63;;;2.30;99.90;;;;;;5072624;28;20244;-52
2023/01/07 04:25:10;;;;;;;4.60;4.20;;;2.30;99.90;;;;;;5059680;28;20260;-53
2023/01/07 04:27:38;;;;;;;4.47;4.07;;;2.20;99.90;;;;;;5072918;28;20606;-52
2023/01/07 04:30:06;;;;;;;5.70;5.20;;;2.20;99.90;;;;;;5072970;28;20203;-53
2023/01/07 04:32:33;;;;;;;4.33;3.77;;;2.10;99.90;;;;;;5066177;28;20234;-52
2023/01/07 04:35:00;;;;;;;6.10;5.17;;;2.20;99.90;;;;;;5071801;28;20264;-54
2023/01/07 04:37:27;;;;;;;4.93;4.53;;;2.20;99.90;;;;;;5066734;28;20265;-52
2023/01/07 04:39:54;;;;;;;4.50;4.10;;;2.20;99.90;;;;;;5071407;28;20545;-53
2023/01/07 04:42:21;;;;;;;4.80;4.33;;;2.20;99.90;;;;;;5059220;28;20222;-53
2023/01/07 04:44:50;;;;;;;4.17;3.00;;;2.20;99.90;;;;;;5069518;28;20202;-51
2023/01/07 04:47:17;;;;;;;6.37;4.20;;;2.30;99.90;;;;;;5058374;28;20252;-53
2023/01/07 04:49:44;;;;;;;4.23;3.90;;;2.20;99.90;;;;;;5072114;28;20202;-53
2023/01/07 04:52:11;;;;;;;4.77;3.83;;;2.10;99.90;;;;;;5072108;28;20626;-52
2023/01/07 04:54:38;;;;;;;4.67;4.27;;;2.00;99.90;;;;;;5068841;28;20627;-52
2023/01/07 04:57:05;;;;;;;4.17;3.87;;;1.90;99.90;;;;;;5069973;28;20203;-53
2023/01/07 04:59:32;;;;;;;4.07;3.70;;;1.90;99.90;;;;;;5052377;28;20623;-52
2023/01/07 05:02:01;;;;;;;4.00;3.67;;;2.00;99.90;;;;;;5067381;28;20630;-53
2023/01/07 05:04:27;;;;;;;5.70;4.00;;;2.00;99.90;;;;;;5066963;28;20194;-52
2023/01/07 05:06:54;;;;;;;4.23;3.53;;;2.10;99.90;;;;;;5071923;28;20244;-52
2023/01/07 05:09:21;;;;;;;11.17;3.97;;;2.00;99.90;;;;;;5070035;28;20628;-53
2023/01/07 05:11:48;;;;;;;4.70;4.20;;;2.00;99.90;;;;;;5071077;28;20228;-52
2023/01/07 05:14:15;;;;;;;4.97;4.47;;;2.00;99.90;;;;;;5068233;28;20646;-53
2023/01/07 05:16:42;;;;;;;6.17;4.13;;;2.00;99.90;;;;;;5052498;28;20553;-52
2023/01/07 05:19:11;;;;;;;4.97;4.57;;;2.00;99.90;;;;;;5052078;28;20229;-54
2023/01/07 05:21:38;;;;;;;5.47;4.97;;;2.00;99.90;;;;;;5051816;28;20708;-52
2023/01/07 05:24:06;;;;;;;8.07;4.43;;;2.00;99.90;;;;;;5070554;28;20196;-53
2023/01/07 05:26:33;;;;;;;4.80;4.47;;;1.90;99.90;;;;;;5071794;28;20199;-52
2023/01/07 05:29:00;;;;;;;5.93;4.13;;;1.90;99.90;;;;;;5061539;28;20195;-53
2023/01/07 05:31:27;;;;;;;5.97;5.47;;;1.90;99.90;;;;;;5061563;28;20318;-53
2023/01/07 05:33:54;;;;;;;4.83;4.27;;;1.80;99.90;;;;;;5071292;28;20218;-52
2023/01/07 05:36:22;;;;;;;3.73;3.20;;;1.80;99.90;;;;;;5071816;28;20627;-52
2023/01/07 05:38:49;;;;;;;4.13;3.83;;;1.80;99.90;;;;;;5071484;28;20210;-52
2023/01/07 05:41:16;;;;;;;4.43;3.93;;;1.80;99.90;;;;;;5063610;28;20639;-52
2023/01/07 05:43:43;;;;;;;4.37;3.93;;;1.80;99.90;;;;;;5071380;28;20605;-52
2023/01/07 05:46:10;;;;;;;4.87;4.13;;;1.80;99.90;;;;;;5065101;28;20194;-53
2023/01/07 05:48:37;;;;;;;4.70;4.30;;;1.80;99.90;;;;;;5065730;28;20298;-52
2023/01/07 05:51:05;;;;;;;11.83;6.73;;;1.70;99.90;;;;;;5063477;28;20296;-52
2023/01/07 05:53:33;;;;;;;16.67;8.23;;;1.70;99.90;;;;;;5057434;28;20267;-53
2023/01/07 05:56:01;;;;;;;14.57;9.87;;;1.70;99.90;;;;;;5071497;28;20198;-54
2023/01/07 05:58:28;;;;;;;11.77;7.37;;;1.60;99.90;;;;;;5071461;28;20255;-52
2023/01/07 06:00:55;;;;;;;13.70;9.77;;;1.60;99.90;;;;;;5071459;28;20226;-51
2023/01/07 06:03:22;;;;;;;9.90;6.83;;;1.50;99.90;;;;;;5067751;28;20215;-53
2023/01/07 06:05:50;;;;;;;7.83;6.27;;;1.60;99.90;;;;;;5065296;28;20202;-52
2023/01/07 06:08:17;;;;;;;5.97;5.37;;;1.50;99.90;;;;;;5071385;28;20252;-53
2023/01/07 06:10:45;;;;;;;5.17;4.83;;;1.50;99.90;;;;;;5071417;28;20279;-53
2023/01/07 06:13:12;;;;;;;5.37;4.63;;;1.60;99.90;;;;;;5071228;28;20675;-53
2023/01/07 06:15:39;;;;;;;5.87;5.30;;;1.50;99.90;;;;;;5071410;28;20678;-53
2023/01/07 06:18:06;;;;;;;5.53;5.03;;;1.40;99.90;;;;;;5070289;28;20252;-52
2023/01/07 06:20:35;;;;;;;5.23;4.73;;;1.40;99.90;;;;;;5068699;28;20194;-52
2023/01/07 06:23:03;;;;;;;5.83;4.20;;;1.40;99.90;;;;;;5063496;28;20207;-52
2023/01/07 06:25:30;;;;;;;8.90;4.23;;;1.40;99.90;;;;;;5065704;28;20286;-54
2023/01/07 06:27:59;;;;;;;7.57;4.87;;;1.40;99.90;;;;;;5070522;28;20202;-52
2023/01/07 06:30:28;;;;;;;5.30;4.80;;;1.40;99.90;;;;;;5074744;28;20198;-51
2023/01/07 06:32:55;;;;;;;5.23;4.73;;;1.40;99.90;;;;;;5065957;28;20252;-52
2023/01/07 06:35:22;;;;;;;6.30;4.50;;;1.40;99.90;;;;;;5074881;28;20259;-53
2023/01/07 06:37:49;;;;;;;4.43;3.90;;;1.40;99.90;;;;;;5074907;28;20202;-53
2023/01/07 06:40:16;;;;;;;5.90;4.37;;;1.50;99.90;;;;;;5063512;28;20210;-52
2023/01/07 06:42:43;;;;;;;5.23;4.83;;;1.50;99.90;;;;;;5065286;28;20260;-53
2023/01/07 06:45:12;;;;;;;5.47;4.97;;;1.50;99.90;;;;;;5062208;28;20652;-53
2023/01/07 06:47:39;;;;;;;4.83;4.33;;;1.40;99.90;;;;;;5071664;28;20195;-53
2023/01/07 06:50:07;;;;;;;6.00;4.90;;;1.30;99.90;;;;;;5074634;28;20259;-52
2023/01/07 06:52:34;;;;;;;6.03;5.17;;;1.30;99.90;;;;;;5060733;28;20699;-53
2023/01/07 06:55:01;;;;;;;7.83;5.67;;;1.30;99.90;;;;;;5070747;28;20451;-53
2023/01/07 06:57:28;;;;;;;5.30;4.90;;;1.30;99.90;;;;;;5061284;28;20580;-52
2023/01/07 06:59:55;;;;;;;8.40;4.87;;;1.40;99.90;;;;;;5057512;28;20634;-52
2023/01/07 07:02:25;;;;;;;5.07;4.27;;;1.40;99.90;;;;;;5062476;28;20230;-52
2023/01/07 07:04:53;;;;;;;7.60;5.37;;;1.50;99.90;;;;;;5069234;28;20215;-52
2023/01/07 07:07:20;;;;;;;6.43;5.07;;;1.40;99.90;;;;;;5070668;28;20202;-53
2023/01/07 07:09:49;;;;;;;5.43;4.93;;;1.40;99.90;;;;;;5075514;28;20286;-52
2023/01/07 07:12:17;;;;;;;5.80;5.30;;;1.40;99.90;;;;;;5074032;28;20226;-52
2023/01/07 07:14:44;;;;;;;7.60;6.47;;;1.40;99.90;;;;;;5059087;28;20210;-53
2023/01/07 07:17:11;;;;;;;8.03;7.23;;;1.30;99.90;;;;;;5059063;28;20200;-52
2023/01/07 07:19:40;;;;;;;7.83;7.03;;;1.30;99.90;;;;;;5065912;28;20206;-52
2023/01/07 07:22:09;;;;;;;8.90;7.00;;;1.30;99.90;;;;;;5073900;28;20281;-52
2023/01/07 07:24:36;;;;;;;8.93;7.57;;;1.30;99.90;;;;;;5074124;28;20218;-53
2023/01/07 07:27:05;;;;;;;11.53;7.43;;;1.30;99.90;;;;;;5070325;28;20199;-52
2023/01/07 07:29:33;;;;;;;10.40;7.63;;;1.30;99.90;;;;;;5066324;28;20218;-52
2023/01/07 07:32:03;;;;;;;11.33;8.87;;;1.20;99.90;;;;;;5068750;28;20229;-52
2023/01/07 07:34:30;;;;;;;10.33;9.10;;;1.30;99.90;;;;;;5068245;28;20304;-53
2023/01/07 07:36:58;;;;;;;87.70;51.80;;;1.20;99.90;;;;;;5065615;28;20230;-52
2023/01/07 07:39:25;;;;;;;54.40;35.73;;;1.30;99.90;;;;;;5073722;28;20263;-52
2023/01/07 07:41:53;;;;;;;50.17;33.70;;;1.30;99.90;;;;;;5064191;28;20233;-52
2023/01/07 07:44:20;;;;;;;101.90;55.93;;;1.20;99.90;;;;;;5071381;28;20218;-52
2023/01/07 07:46:47;;;;;;;104.37;56.63;;;1.20;99.90;;;;;;5072967;28;20200;-53
2023/01/07 07:49:14;;;;;;;113.30;64.60;;;1.20;99.90;;;;;;5054760;28;20290;-52
2023/01/07 07:51:41;;;;;;;100.17;55.37;;;1.20;99.90;;;;;;5067354;28;20296;-52
2023/01/07 07:54:09;;;;;;;66.67;39.33;;;1.30;99.90;;;;;;5068083;28;20203;-52
2023/01/07 07:56:36;;;;;;;38.67;23.17;;;1.30;99.90;;;;;;5061089;28;20734;-53
2023/01/07 07:59:03;;;;;;;27.20;19.30;;;1.30;99.90;;;;;;5073097;28;20199;-52
2023/01/07 08:01:30;;;;;;;22.33;16.67;;;1.30;99.90;;;;;;5066477;28;20271;-52
2023/01/07 08:03:57;;;;;;;14.03;9.67;;;1.40;99.90;;;;;;5068689;28;20271;-51
2023/01/07 08:06:24;;;;;;;22.07;14.63;;;1.50;99.90;;;;;;5058674;28;20257;-52
2023/01/07 08:08:52;;;;;;;22.60;17.40;;;1.60;99.90;;;;;;5057779;28;20462;-53
2023/01/07 08:11:20;;;;;;;18.00;13.50;;;1.70;99.90;;;;;;5066380;28;20727;-53
2023/01/07 08:13:47;;;;;;;14.13;11.10;;;1.80;99.90;;;;;;5063339;28;20668;-53
2023/01/07 08:16:14;;;;;;;11.23;8.80;;;1.80;99.90;;;;;;5064863;28;20939;-53
2023/01/07 08:18:42;;;;;;;11.20;10.03;;;2.00;99.90;;;;;;5064974;28;20204;-53
2023/01/07 08:21:09;;;;;;;9.67;8.67;;;2.10;99.90;;;;;;5064142;28;20301;-53
2023/01/07 08:23:36;;;;;;;10.63;7.80;;;2.10;99.90;;;;;;5068247;28;20249;-53
2023/01/07 08:26:04;;;;;;;8.30;7.33;;;2.20;99.90;;;;;;5062402;28;20667;-53
2023/01/07 08:28:33;;;;;;;9.07;7.40;;;2.30;99.90;;;;;;5069200;28;20723;-53
2023/01/07 08:31:02;;;;;;;8.43;6.67;;;2.30;99.90;;;;;;5068559;28;20227;-53
2023/01/07 08:33:30;;;;;;;7.80;6.87;;;2.40;99.90;;;;;;5056949;28;20206;-53
2023/01/07 08:35:57;;;;;;;11.73;7.93;;;2.40;99.90;;;;;;5059020;28;20199;-53
2023/01/07 08:38:26;;;;;;;8.83;7.83;;;2.50;99.90;;;;;;5063234;28;20199;-53
2023/01/07 08:40:53;;;;;;;8.33;6.83;;;2.70;99.90;;;;;;5053060;28;20246;-53
2023/01/07 08:43:22;;;;;;;10.67;8.03;;;2.90;99.90;;;;;;5060666;28;20280;-53
2023/01/07 08:45:52;;;;;;;9.77;7.90;;;3.10;99.90;;;;;;5061020;28;20226;-54
2023/01/07 08:48:19;;;;;;;8.53;7.27;;;3.30;99.90;;;;;;5064218;28;20208;-53
2023/01/07 08:50:50;;;;;;;9.50;7.27;;;3.40;99.90;;;;;;5070865;28;20623;-52
2023/01/07 08:53:18;;;;;;;7.53;6.83;;;3.80;99.90;;;;;;5064259;28;20298;-55
2023/01/07 08:55:45;;;;;;;9.27;6.80;;;4.10;99.90;;;;;;5056492;28;20619;-54
2023/01/07 08:58:12;;;;;;;10.27;7.03;;;4.30;99.90;;;;;;5065109;28;20236;-53
2023/01/07 09:00:40;;;;;;;11.80;8.37;;;4.50;99.90;;;;;;5068068;28;20230;-53
2023/01/07 09:03:08;;;;;;;10.67;8.80;;;4.90;99.90;;;;;;5069014;28;20284;-53
2023/01/07 09:05:36;;;;;;;10.60;9.60;;;5.00;99.90;;;;;;5064441;28;20232;-55
2023/01/07 09:08:03;;;;;;;10.33;9.20;;;5.20;99.90;;;;;;5069489;28;20207;-53
2023/01/07 09:10:31;;;;;;;9.20;8.30;;;5.30;99.90;;;;;;5064186;28;20265;-53
2023/01/07 09:12:59;;;;;;;9.67;8.70;;;5.50;99.90;;;;;;5060867;28;20201;-50
2023/01/07 09:15:26;;;;;;;8.60;7.80;;;5.80;99.90;;;;;;5055684;28;20208;-50
2023/01/07 09:17:53;;;;;;;7.53;6.33;;;6.00;99.90;;;;;;5066141;28;20207;-53
2023/01/07 09:20:22;;;;;;;10.90;7.30;;;6.20;99.90;;;;;;5062875;28;20571;-52
2023/01/07 09:22:49;;;;;;;7.10;6.37;;;6.40;99.90;;;;;;5071744;28;20254;-52
2023/01/07 09:25:16;;;;;;;8.50;7.27;;;6.60;99.90;;;;;;5070766;28;20280;-52
2023/01/07 09:27:44;;;;;;;8.53;7.73;;;6.80;99.90;;;;;;5070010;28;20204;-51
2023/01/07 09:30:12;;;;;;;7.33;6.33;;;6.90;99.90;;;;;;5065964;28;20257;-50
2023/01/07 09:32:39;;;;;;;9.03;5.87;;;6.90;99.90;;;;;;5089389;22;20238;-52
2023/01/07 09:35:07;;;;;;;7.63;5.87;;;6.80;99.90;;;;;;5068583;28;20224;-51
2023/01/07 09:37:35;;;;;;;5.67;5.23;;;6.70;99.90;;;;;;5069597;28;20293;-51
2023/01/07 09:40:03;;;;;;;5.57;5.07;;;6.70;99.90;;;;;;5067535;28;20228;-52
2023/01/07 09:42:38;;;;;;;6.23;5.60;;;6.50;99.90;;;;;;5069235;28;20228;-51
2023/01/07 09:45:14;;;;;;;5.73;5.23;;;6.50;99.90;;;;;;5063165;28;20252;-52
2023/01/07 09:47:43;;;;;;;5.80;5.30;;;6.40;99.90;;;;;;5073281;28;20263;-52
2023/01/07 09:50:18;;;;;;;5.93;5.33;;;6.30;99.90;;;;;;5067034;28;20214;-51
2023/01/07 09:52:51;;;;;;;5.10;4.70;;;6.40;99.90;;;;;;5070135;28;20299;-52
2023/01/07 09:55:24;;;;;;;7.80;5.17;;;6.40;99.90;;;;;;5072539;28;20233;-52
2023/01/07 09:57:51;;;;;;;6.83;4.87;;;6.50;99.90;;;;;;5066049;28;20195;-53
2023/01/07 10:00:22;;;;;;;4.97;4.47;;;6.50;99.90;;;;;;5059006;28;20328;-52
2023/01/07 10:03:08;;;;;;;5.30;4.80;;;6.30;99.90;;;;;;5049785;28;20231;-52
2023/01/07 10:05:44;;;;;;;5.47;4.17;;;6.50;99.90;;;;;;5065571;28;20272;-52
2023/01/07 10:08:33;;;;;;;3.53;3.33;;;6.70;99.90;;;;;;5069557;28;20206;-52
2023/01/07 10:11:07;;;;;;;5.63;5.13;;;6.90;99.90;;;;;;5070026;28;20245;-52
2023/01/07 10:13:55;;;;;;;4.20;3.90;;;7.20;99.90;;;;;;5069599;28;20201;-52
2023/01/07 10:16:28;;;;;;;4.10;3.70;;;7.40;99.90;;;;;;5069869;28;20727;-52
2023/01/07 10:19:05;;;;;;;3.87;3.57;;;7.60;99.90;;;;;;5069562;28;20202;-51
2023/01/07 10:21:40;;;;;;;5.33;4.80;;;8.10;99.90;;;;;;5069699;28;20279;-52
2023/01/07 10:24:15;;;;;;;3.80;3.50;;;8.70;99.90;;;;;;5069887;28;20255;-51
2023/01/07 10:26:47;;;;;;;4.63;4.03;;;9.20;99.90;;;;;;5069640;28;20202;-52
2023/01/07 10:29:19;;;;;;;3.60;3.37;;;9.80;99.90;;;;;;5055750;28;20243;-52
2023/01/07 10:31:48;;;;;;;5.03;4.60;;;10.10;99.90;;;;;;5049608;28;20231;-52
2023/01/07 10:34:21;;;;;;;5.13;4.63;;;10.30;99.90;;;;;;5049590;28;20196;-52
2023/01/07 10:37:03;;;;;;;3.43;3.23;;;10.20;99.90;;;;;;5060715;28;20257;-52
2023/01/07 10:39:42;;;;;;;4.23;3.93;;;10.50;99.90;;;;;;5069483;28;20619;-52
2023/01/07 10:42:16;;;;;;;3.87;3.57;;;10.30;99.90;;;;;;5077837;28;20221;-52
2023/01/07 10:45:10;;;;;;;3.47;3.23;;;10.20;99.90;;;;;;5090027;28;20230;-52
2023/01/07 10:47:52;;;;;;;4.33;4.07;;;9.90;99.90;;;;;;5078995;28;20211;-51
2023/01/07 10:50:57;;;;;;;6.37;3.80;;;9.30;99.90;;;;;;5055038;28;20274;-52
2023/01/07 10:53:32;;;;;;;4.50;4.20;;;8.60;99.90;;;;;;5049481;28;20202;-52
2023/01/07 10:56:10;;;;;;;4.63;4.33;;;8.20;99.90;;;;;;5065997;28;20677;-51
2023/01/07 10:58:40;;;;;;;4.37;4.03;;;8.20;99.90;;;;;;5072209;28;20281;-52
2023/01/07 11:01:08;;;;;;;5.10;4.70;;;8.20;99.90;;;;;;5069570;28;20716;-52
2023/01/07 11:03:37;;;;;;;5.83;5.33;;;8.20;99.90;;;;;;5076204;28;20254;-52
2023/01/07 11:06:10;;;;;;;6.07;5.57;;;8.20;99.90;;;;;;5069006;28;20282;-52
2023/01/07 11:08:39;;;;;;;6.50;5.93;;;8.20;99.90;;;;;;5069493;28;20290;-52
2023/01/07 11:11:14;;;;;;;6.13;5.67;;;8.20;99.90;;;;;;5072824;28;20229;-52
2023/01/07 11:13:43;;;;;;;7.40;5.90;;;8.20;99.90;;;;;;5079602;28;20263;-52
2023/01/07 11:16:11;;;;;;;6.50;5.90;;;8.20;99.90;;;;;;5059426;28;20587;-52
2023/01/07 11:18:47;;;;;;;7.87;6.57;;;8.30;99.90;;;;;;5052921;28;20207;-52
2023/01/07 11:21:31;;;;;;;6.57;5.97;;;8.50;99.90;;;;;;5052757;28;20233;-51
2023/01/07 11:24:00;;;;;;;7.63;6.93;;;8.50;99.90;;;;;;5079190;28;20650;-51
2023/01/07 11:26:30;;;;;;;11.17;7.27;;;8.60;99.90;;;;;;5056692;28;20564;-52
2023/01/07 11:29:00;;;;;;;7.87;7.07;;;8.70;99.90;;;;;;5057646;28;20211;-52
2023/01/07 11:31:47;;;;;;;7.03;6.43;;;8.70;99.90;;;;;;5072352;28;20239;-52
2023/01/07 11:34:22;;;;;;;7.73;6.90;;;8.70;99.90;;;;;;5078412;28;20211;-52
2023/01/07 11:36:50;;;;;;;6.30;5.73;;;8.70;99.90;;;;;;5069460;28;20290;-51
2023/01/07 11:39:20;;;;;;;7.97;7.33;;;8.70;99.90;;;;;;5070045;28;20210;-52
2023/01/07 11:41:59;;;;;;;7.27;6.57;;;8.60;99.90;;;;;;5070204;28;20220;-51
2023/01/07 11:44:27;;;;;;;7.43;6.73;;;8.70;99.90;;;;;;5068185;28;20198;-51
2023/01/07 11:46:54;;;;;;;9.67;6.57;;;8.70;99.90;;;;;;5071997;28;20222;-51
2023/01/07 11:49:26;;;;;;;6.83;6.23;;;8.70;99.90;;;;;;5073606;28;20333;-51
2023/01/07 11:51:53;;;;;;;5.93;5.40;;;8.80;99.90;;;;;;5071973;28;20576;-51
2023/01/07 11:54:22;;;;;;;6.87;6.37;;;8.90;99.90;;;;;;5072280;28;20201;-52
2023/01/07 11:56:50;;;;;;;7.00;6.40;;;8.80;99.90;;;;;;5071713;28;20438;-52
2023/01/07 11:59:29;;;;;;;7.10;6.40;;;8.80;99.90;;;;;;5076555;28;20289;-51
2023/01/07 12:01:58;;;;;;;6.43;5.83;;;8.80;99.90;;;;;;5071418;28;20223;-51
2023/01/07 12:04:27;;;;;;;6.63;6.13;;;8.80;99.90;;;;;;5071904;28;20242;-51
2023/01/07 12:06:57;;;;;;;6.83;5.43;;;8.80;99.90;;;;;;5066824;28;20575;-51
2023/01/07 12:09:37;;;;;;;6.17;5.50;;;8.70;99.90;;;;;;5072519;28;20632;-50
2023/01/07 12:15:04;;;;;;;5.97;5.57;;;8.70;99.90;;;;;;5072027;28;20194;-53
2023/01/07 12:17:35;;;;;;;6.80;6.20;;;8.80;99.90;;;;;;5071137;28;20203;-52
2023/01/07 12:20:25;;;;;;;7.93;5.83;;;8.90;99.90;;;;;;5071457;28;20603;-51
2023/01/07 12:23:00;;;;;;;6.07;5.50;;;8.80;99.90;;;;;;5071175;28;20230;-52
2023/01/07 12:25:36;;;;;;;5.23;4.93;;;8.80;99.90;;;;;;5071646;28;20551;-52
2023/01/07 12:28:11;;;;;;;5.70;5.30;;;8.70;99.90;;;;;;5071645;28;20224;-51
2023/01/07 12:30:57;;;;;;;5.97;5.53;;;8.70;99.90;;;;;;5071776;28;20234;-52
2023/01/07 12:33:37;;;;;;;6.23;5.63;;;8.60;99.90;;;;;;5055798;28;20199;-51
2023/01/07 12:36:11;;;;;;;6.97;6.43;;;8.60;99.90;;;;;;5053791;28;20682;-51
2023/01/07 12:38:43;;;;;;;6.97;6.27;;;8.60;99.90;;;;;;5071083;28;20584;-51
2023/01/07 12:41:18;;;;;;;6.53;6.03;;;8.60;99.90;;;;;;5071296;28;20227;-51
2023/01/07 12:43:55;;;;;;;7.13;6.53;;;8.60;99.90;;;;;;5070939;28;20305;-51
2023/01/07 12:46:25;;;;;;;6.40;5.80;;;8.50;99.90;;;;;;5071115;28;20218;-52
2023/01/07 12:49:03;;;;;;;15.80;10.13;;;8.40;99.90;;;;;;5070698;28;20223;-50
2023/01/07 12:51:36;;;;;;;9.17;6.90;;;8.40;99.90;;;;;;5070969;28;20597;-50
2023/01/07 12:54:10;;;;;;;7.30;6.60;;;8.50;99.90;;;;;;5071012;28;20205;-51
2023/01/07 12:56:42;;;;;;;6.00;5.50;;;8.30;99.90;;;;;;5070979;28;20198;-50
2023/01/07 12:59:15;;;;;;;7.73;6.67;;;8.40;99.90;;;;;;5075207;28;20199;-52
2023/01/07 13:01:48;;;;;;;8.50;7.33;;;8.50;99.90;;;;;;5072542;28;20233;-50
2023/01/07 13:04:28;;;;;;;8.37;6.93;;;8.50;99.90;;;;;;5070792;28;20210;-51
2023/01/07 13:07:00;;;;;;;6.67;6.10;;;8.40;99.90;;;;;;5070908;28;20231;-52
2023/01/07 13:09:32;;;;;;;6.60;5.90;;;8.40;99.90;;;;;;5069411;28;20202;-54
2023/01/07 13:14:53;;;;;;;7.30;6.70;;;8.30;99.90;;;;;;5050896;28;20331;-52
2023/01/07 13:17:26;;;;;;;8.73;7.57;;;8.10;99.90;;;;;;5050823;28;20206;-51
2023/01/07 13:19:54;;;;;;;6.80;6.20;;;8.10;99.90;;;;;;5077509;28;20306;-51